sensor_id;sensor_type;location;lat;lon;timestamp;P1;durP1;ratioP1;P2;durP2;ratioP2
12535;SDS011;6334;48.696;2.114;2023-05-10T00:01:01;4.20;;;1.77;;
12535;SDS011;6334;48.696;2.114;2023-05-10T00:03:32;3.23;;;1.77;;
12535;SDS011;6334;48.696;2.114;2023-05-10T00:06:02;4.70;;;1.80;;
12535;SDS011;6334;48.696;2.114;2023-05-10T00:11:03;8.23;;;1.87;;
12535;SDS011;6334;48.696;2.114;2023-05-10T00:13:34;3.67;;;1.37;;
12535;SDS011;6334;48.696;2.114;2023-05-10T00:16:04;1.33;;;1.10;;
12535;SDS011;6334;48.696;2.114;2023-05-10T00:18:35;3.83;;;1.83;;
12535;SDS011;6334;48.696;2.114;2023-05-10T00:21:05;4.77;;;1.37;;
12535;SDS011;6334;48.696;2.114;2023-05-10T00:23:36;6.73;;;1.77;;
12535;SDS011;6334;48.696;2.114;2023-05-10T00:26:05;1.83;;;1.13;;
12535;SDS011;6334;48.696;2.114;2023-05-10T00:28:36;2.97;;;1.70;;
12535;SDS011;6334;48.696;2.114;2023-05-10T00:31:06;2.70;;;1.37;;
12535;SDS011;6334;48.696;2.114;2023-05-10T00:33:36;3.93;;;1.57;;
12535;SDS011;6334;48.696;2.114;2023-05-10T00:36:07;3.83;;;1.10;;
12535;SDS011;6334;48.696;2.114;2023-05-10T00:38:37;2.87;;;1.33;;
12535;SDS011;6334;48.696;2.114;2023-05-10T00:41:08;2.63;;;1.10;;
12535;SDS011;6334;48.696;2.114;2023-05-10T00:43:38;1.77;;;0.90;;
12535;SDS011;6334;48.696;2.114;2023-05-10T00:46:09;4.50;;;1.23;;
12535;SDS011;6334;48.696;2.114;2023-05-10T00:48:39;3.73;;;1.20;;
12535;SDS011;6334;48.696;2.114;2023-05-10T00:51:10;0.97;;;0.90;;
12535;SDS011;6334;48.696;2.114;2023-05-10T00:53:40;3.03;;;1.43;;
12535;SDS011;6334;48.696;2.114;2023-05-10T00:56:11;3.50;;;1.00;;
12535;SDS011;6334;48.696;2.114;2023-05-10T00:58:41;4.33;;;1.50;;
12535;SDS011;6334;48.696;2.114;2023-05-10T01:01:11;2.90;;;1.20;;
12535;SDS011;6334;48.696;2.114;2023-05-10T01:03:42;7.27;;;1.60;;
12535;SDS011;6334;48.696;2.114;2023-05-10T01:06:12;4.90;;;1.80;;
12535;SDS011;6334;48.696;2.114;2023-05-10T01:08:43;1.30;;;1.00;;
12535;SDS011;6334;48.696;2.114;2023-05-10T01:11:13;4.67;;;1.50;;
12535;SDS011;6334;48.696;2.114;2023-05-10T01:13:53;3.13;;;1.00;;
12535;SDS011;6334;48.696;2.114;2023-05-10T01:16:14;2.30;;;1.10;;
12535;SDS011;6334;48.696;2.114;2023-05-10T01:18:45;2.43;;;1.03;;
12535;SDS011;6334;48.696;2.114;2023-05-10T01:27:17;5.57;;;1.70;;
12535;SDS011;6334;48.696;2.114;2023-05-10T01:34:54;1.13;;;1.00;;
12535;SDS011;6334;48.696;2.114;2023-05-10T01:37:21;3.50;;;1.23;;
12535;SDS011;6334;48.696;2.114;2023-05-10T01:39:57;3.87;;;1.20;;
12535;SDS011;6334;48.696;2.114;2023-05-10T01:42:25;2.47;;;1.10;;
12535;SDS011;6334;48.696;2.114;2023-05-10T01:45:02;1.73;;;1.40;;
12535;SDS011;6334;48.696;2.114;2023-05-10T01:47:37;1.70;;;1.40;;
12535;SDS011;6334;48.696;2.114;2023-05-10T01:50:22;4.67;;;1.70;;
12535;SDS011;6334;48.696;2.114;2023-05-10T01:52:42;4.87;;;1.30;;
12535;SDS011;6334;48.696;2.114;2023-05-10T01:55:15;4.63;;;1.17;;
12535;SDS011;6334;48.696;2.114;2023-05-10T01:57:46;2.23;;;1.37;;
12535;SDS011;6334;48.696;2.114;2023-05-10T02:00:16;1.37;;;1.00;;
12535;SDS011;6334;48.696;2.114;2023-05-10T02:02:48;2.70;;;1.70;;
12535;SDS011;6334;48.696;2.114;2023-05-10T02:05:19;2.10;;;0.70;;
12535;SDS011;6334;48.696;2.114;2023-05-10T02:07:50;1.40;;;0.80;;
12535;SDS011;6334;48.696;2.114;2023-05-10T02:10:20;3.97;;;1.93;;
12535;SDS011;6334;48.696;2.114;2023-05-10T02:12:51;2.13;;;1.23;;
12535;SDS011;6334;48.696;2.114;2023-05-10T02:15:22;4.40;;;1.70;;
12535;SDS011;6334;48.696;2.114;2023-05-10T02:17:52;1.93;;;1.43;;
12535;SDS011;6334;48.696;2.114;2023-05-10T02:20:22;1.50;;;1.10;;
12535;SDS011;6334;48.696;2.114;2023-05-10T02:22:53;2.00;;;0.90;;
12535;SDS011;6334;48.696;2.114;2023-05-10T02:25:23;2.37;;;1.00;;
12535;SDS011;6334;48.696;2.114;2023-05-10T02:27:54;3.17;;;1.53;;
12535;SDS011;6334;48.696;2.114;2023-05-10T02:30:24;2.53;;;0.77;;
12535;SDS011;6334;48.696;2.114;2023-05-10T02:32:54;5.23;;;1.67;;
12535;SDS011;6334;48.696;2.114;2023-05-10T02:35:25;2.73;;;1.43;;
12535;SDS011;6334;48.696;2.114;2023-05-10T02:37:55;2.47;;;1.40;;
12535;SDS011;6334;48.696;2.114;2023-05-10T02:40:26;4.27;;;1.43;;
12535;SDS011;6334;48.696;2.114;2023-05-10T02:42:56;2.80;;;1.33;;
12535;SDS011;6334;48.696;2.114;2023-05-10T02:45:27;1.30;;;0.83;;
12535;SDS011;6334;48.696;2.114;2023-05-10T02:47:57;1.23;;;0.93;;
12535;SDS011;6334;48.696;2.114;2023-05-10T02:50:28;2.40;;;1.00;;
12535;SDS011;6334;48.696;2.114;2023-05-10T02:53:01;2.57;;;1.70;;
12535;SDS011;6334;48.696;2.114;2023-05-10T02:55:32;1.63;;;1.13;;
12535;SDS011;6334;48.696;2.114;2023-05-10T02:58:02;1.63;;;0.83;;
12535;SDS011;6334;48.696;2.114;2023-05-10T03:00:32;1.13;;;1.10;;
12535;SDS011;6334;48.696;2.114;2023-05-10T03:03:03;5.53;;;1.63;;
12535;SDS011;6334;48.696;2.114;2023-05-10T03:05:33;5.03;;;1.27;;
12535;SDS011;6334;48.696;2.114;2023-05-10T03:08:03;4.27;;;1.30;;
12535;SDS011;6334;48.696;2.114;2023-05-10T03:10:37;4.33;;;1.63;;
12535;SDS011;6334;48.696;2.114;2023-05-10T03:18:24;5.37;;;1.57;;
12535;SDS011;6334;48.696;2.114;2023-05-10T03:20:57;2.83;;;0.97;;
12535;SDS011;6334;48.696;2.114;2023-05-10T03:26:05;5.70;;;1.23;;
12535;SDS011;6334;48.696;2.114;2023-05-10T03:28:36;3.40;;;1.60;;
12535;SDS011;6334;48.696;2.114;2023-05-10T03:31:06;3.97;;;1.10;;
12535;SDS011;6334;48.696;2.114;2023-05-10T03:33:45;2.93;;;1.20;;
12535;SDS011;6334;48.696;2.114;2023-05-10T03:36:07;1.20;;;1.10;;
12535;SDS011;6334;48.696;2.114;2023-05-10T03:38:38;4.03;;;1.40;;
12535;SDS011;6334;48.696;2.114;2023-05-10T03:41:08;3.60;;;1.30;;
12535;SDS011;6334;48.696;2.114;2023-05-10T03:43:40;1.90;;;1.37;;
12535;SDS011;6334;48.696;2.114;2023-05-10T03:46:10;3.00;;;1.00;;
12535;SDS011;6334;48.696;2.114;2023-05-10T03:48:41;2.17;;;1.30;;
12535;SDS011;6334;48.696;2.114;2023-05-10T03:51:11;1.80;;;1.10;;
12535;SDS011;6334;48.696;2.114;2023-05-10T03:53:42;3.20;;;1.30;;
12535;SDS011;6334;48.696;2.114;2023-05-10T03:56:12;1.07;;;0.70;;
12535;SDS011;6334;48.696;2.114;2023-05-10T03:58:43;2.87;;;1.10;;
12535;SDS011;6334;48.696;2.114;2023-05-10T04:01:13;2.10;;;1.60;;
12535;SDS011;6334;48.696;2.114;2023-05-10T04:03:44;2.70;;;1.40;;
12535;SDS011;6334;48.696;2.114;2023-05-10T04:06:14;4.23;;;1.70;;
12535;SDS011;6334;48.696;2.114;2023-05-10T04:08:44;1.80;;;1.20;;
12535;SDS011;6334;48.696;2.114;2023-05-10T04:11:15;3.17;;;1.30;;
12535;SDS011;6334;48.696;2.114;2023-05-10T04:13:45;1.30;;;1.20;;
12535;SDS011;6334;48.696;2.114;2023-05-10T04:16:16;2.77;;;1.13;;
12535;SDS011;6334;48.696;2.114;2023-05-10T04:18:46;2.53;;;0.97;;
12535;SDS011;6334;48.696;2.114;2023-05-10T04:21:17;1.70;;;1.27;;
12535;SDS011;6334;48.696;2.114;2023-05-10T04:23:47;2.43;;;1.20;;
12535;SDS011;6334;48.696;2.114;2023-05-10T04:26:18;1.07;;;0.97;;
12535;SDS011;6334;48.696;2.114;2023-05-10T04:28:48;4.93;;;1.10;;
12535;SDS011;6334;48.696;2.114;2023-05-10T04:31:19;1.87;;;1.50;;
12535;SDS011;6334;48.696;2.114;2023-05-10T04:33:49;1.03;;;0.80;;
12535;SDS011;6334;48.696;2.114;2023-05-10T04:36:19;1.13;;;1.00;;
12535;SDS011;6334;48.696;2.114;2023-05-10T04:38:50;2.50;;;1.00;;
12535;SDS011;6334;48.696;2.114;2023-05-10T04:41:22;2.10;;;1.10;;
12535;SDS011;6334;48.696;2.114;2023-05-10T04:43:52;1.87;;;1.07;;
12535;SDS011;6334;48.696;2.114;2023-05-10T04:46:23;2.00;;;0.90;;
12535;SDS011;6334;48.696;2.114;2023-05-10T04:48:53;0.70;;;0.70;;
12535;SDS011;6334;48.696;2.114;2023-05-10T04:51:24;2.40;;;1.13;;
12535;SDS011;6334;48.696;2.114;2023-05-10T04:53:54;2.83;;;1.10;;
12535;SDS011;6334;48.696;2.114;2023-05-10T04:56:25;1.43;;;1.00;;
12535;SDS011;6334;48.696;2.114;2023-05-10T04:58:55;1.80;;;1.17;;
12535;SDS011;6334;48.696;2.114;2023-05-10T05:01:25;2.07;;;1.10;;
12535;SDS011;6334;48.696;2.114;2023-05-10T05:03:56;2.00;;;0.87;;
12535;SDS011;6334;48.696;2.114;2023-05-10T05:06:26;1.47;;;1.37;;
12535;SDS011;6334;48.696;2.114;2023-05-10T05:08:57;1.30;;;1.17;;
12535;SDS011;6334;48.696;2.114;2023-05-10T05:11:27;1.93;;;1.00;;
12535;SDS011;6334;48.696;2.114;2023-05-10T05:13:59;1.13;;;1.00;;
12535;SDS011;6334;48.696;2.114;2023-05-10T05:16:30;1.83;;;1.00;;
12535;SDS011;6334;48.696;2.114;2023-05-10T05:19:01;2.93;;;1.40;;
12535;SDS011;6334;48.696;2.114;2023-05-10T05:21:31;1.93;;;1.03;;
12535;SDS011;6334;48.696;2.114;2023-05-10T05:24:02;2.33;;;1.20;;
12535;SDS011;6334;48.696;2.114;2023-05-10T05:26:32;2.00;;;1.17;;
12535;SDS011;6334;48.696;2.114;2023-05-10T05:29:03;2.37;;;1.40;;
12535;SDS011;6334;48.696;2.114;2023-05-10T05:31:33;4.73;;;1.50;;
12535;SDS011;6334;48.696;2.114;2023-05-10T05:34:04;4.07;;;1.37;;
12535;SDS011;6334;48.696;2.114;2023-05-10T05:36:35;3.00;;;1.30;;
12535;SDS011;6334;48.696;2.114;2023-05-10T05:39:07;3.13;;;1.40;;
12535;SDS011;6334;48.696;2.114;2023-05-10T05:41:37;1.63;;;1.10;;
12535;SDS011;6334;48.696;2.114;2023-05-10T05:44:08;2.37;;;1.10;;
12535;SDS011;6334;48.696;2.114;2023-05-10T05:46:38;2.05;;;1.30;;
12535;SDS011;6334;48.696;2.114;2023-05-10T05:49:09;1.85;;;1.33;;
12535;SDS011;6334;48.696;2.114;2023-05-10T05:51:39;2.37;;;1.47;;
12535;SDS011;6334;48.696;2.114;2023-05-10T05:54:10;2.53;;;1.40;;
12535;SDS011;6334;48.696;2.114;2023-05-10T05:56:39;1.57;;;1.27;;
12535;SDS011;6334;48.696;2.114;2023-05-10T05:59:11;4.10;;;1.60;;
12535;SDS011;6334;48.696;2.114;2023-05-10T06:01:41;1.73;;;1.13;;
12535;SDS011;6334;48.696;2.114;2023-05-10T06:04:12;1.47;;;1.23;;
12535;SDS011;6334;48.696;2.114;2023-05-10T06:06:42;1.93;;;1.20;;
12535;SDS011;6334;48.696;2.114;2023-05-10T06:09:12;5.77;;;1.60;;
12535;SDS011;6334;48.696;2.114;2023-05-10T06:11:43;1.43;;;1.17;;
12535;SDS011;6334;48.696;2.114;2023-05-10T06:14:12;2.33;;;1.10;;
12535;SDS011;6334;48.696;2.114;2023-05-10T06:16:43;3.90;;;1.47;;
12535;SDS011;6334;48.696;2.114;2023-05-10T06:19:12;8.57;;;1.87;;
12535;SDS011;6334;48.696;2.114;2023-05-10T06:21:42;1.57;;;1.10;;
12535;SDS011;6334;48.696;2.114;2023-05-10T06:24:11;4.70;;;1.57;;
12535;SDS011;6334;48.696;2.114;2023-05-10T06:26:41;1.00;;;0.90;;
12535;SDS011;6334;48.696;2.114;2023-05-10T06:29:11;2.50;;;1.57;;
12535;SDS011;6334;48.696;2.114;2023-05-10T06:31:40;4.10;;;1.50;;
12535;SDS011;6334;48.696;2.114;2023-05-10T06:34:10;3.00;;;1.47;;
12535;SDS011;6334;48.696;2.114;2023-05-10T06:36:40;1.33;;;1.03;;
12535;SDS011;6334;48.696;2.114;2023-05-10T06:39:10;4.37;;;1.57;;
12535;SDS011;6334;48.696;2.114;2023-05-10T06:41:40;2.20;;;1.03;;
12535;SDS011;6334;48.696;2.114;2023-05-10T06:44:10;2.23;;;1.30;;
12535;SDS011;6334;48.696;2.114;2023-05-10T06:46:40;0.57;;;0.57;;
12535;SDS011;6334;48.696;2.114;2023-05-10T06:49:11;1.77;;;1.00;;
12535;SDS011;6334;48.696;2.114;2023-05-10T06:51:41;0.90;;;0.90;;
12535;SDS011;6334;48.696;2.114;2023-05-10T06:54:12;1.77;;;0.97;;
12535;SDS011;6334;48.696;2.114;2023-05-10T06:56:42;1.87;;;1.20;;
12535;SDS011;6334;48.696;2.114;2023-05-10T06:59:12;1.77;;;0.80;;
12535;SDS011;6334;48.696;2.114;2023-05-10T07:01:42;1.30;;;0.77;;
12535;SDS011;6334;48.696;2.114;2023-05-10T07:04:12;1.03;;;0.83;;
12535;SDS011;6334;48.696;2.114;2023-05-10T07:06:42;0.70;;;0.70;;
12535;SDS011;6334;48.696;2.114;2023-05-10T07:09:12;0.43;;;0.43;;
12535;SDS011;6334;48.696;2.114;2023-05-10T07:11:41;1.80;;;0.80;;
12535;SDS011;6334;48.696;2.114;2023-05-10T07:14:11;0.60;;;0.60;;
12535;SDS011;6334;48.696;2.114;2023-05-10T07:16:42;0.73;;;0.60;;
12535;SDS011;6334;48.696;2.114;2023-05-10T07:19:12;1.50;;;0.80;;
12535;SDS011;6334;48.696;2.114;2023-05-10T07:21:42;1.33;;;1.00;;
12535;SDS011;6334;48.696;2.114;2023-05-10T07:24:11;0.83;;;0.77;;
12535;SDS011;6334;48.696;2.114;2023-05-10T07:26:42;0.57;;;0.57;;
12535;SDS011;6334;48.696;2.114;2023-05-10T07:29:12;1.50;;;1.00;;
12535;SDS011;6334;48.696;2.114;2023-05-10T07:31:43;0.70;;;0.70;;
12535;SDS011;6334;48.696;2.114;2023-05-10T07:34:13;0.57;;;0.57;;
12535;SDS011;6334;48.696;2.114;2023-05-10T07:36:43;3.87;;;0.80;;
12535;SDS011;6334;48.696;2.114;2023-05-10T07:39:14;0.93;;;0.93;;
12535;SDS011;6334;48.696;2.114;2023-05-10T07:41:44;0.60;;;0.60;;
12535;SDS011;6334;48.696;2.114;2023-05-10T07:44:15;0.77;;;0.57;;
12535;SDS011;6334;48.696;2.114;2023-05-10T07:46:46;1.97;;;0.73;;
12535;SDS011;6334;48.696;2.114;2023-05-10T07:49:15;0.80;;;0.80;;
12535;SDS011;6334;48.696;2.114;2023-05-10T07:51:45;0.70;;;0.70;;
12535;SDS011;6334;48.696;2.114;2023-05-10T07:54:15;2.00;;;0.93;;
12535;SDS011;6334;48.696;2.114;2023-05-10T07:56:45;0.60;;;0.60;;
12535;SDS011;6334;48.696;2.114;2023-05-10T07:59:14;0.60;;;0.60;;
12535;SDS011;6334;48.696;2.114;2023-05-10T08:01:44;1.10;;;0.70;;
12535;SDS011;6334;48.696;2.114;2023-05-10T08:04:14;0.63;;;0.63;;
12535;SDS011;6334;48.696;2.114;2023-05-10T08:06:45;1.83;;;1.10;;
12535;SDS011;6334;48.696;2.114;2023-05-10T08:09:16;0.73;;;0.67;;
12535;SDS011;6334;48.696;2.114;2023-05-10T08:11:47;2.37;;;1.10;;
12535;SDS011;6334;48.696;2.114;2023-05-10T08:14:17;4.33;;;1.40;;
12535;SDS011;6334;48.696;2.114;2023-05-10T08:16:48;2.03;;;1.17;;
12535;SDS011;6334;48.696;2.114;2023-05-10T08:19:17;1.53;;;0.97;;
12535;SDS011;6334;48.696;2.114;2023-05-10T08:21:48;1.33;;;0.90;;
12535;SDS011;6334;48.696;2.114;2023-05-10T08:24:18;5.40;;;2.20;;
12535;SDS011;6334;48.696;2.114;2023-05-10T08:26:49;3.17;;;1.50;;
12535;SDS011;6334;48.696;2.114;2023-05-10T08:29:19;6.50;;;1.93;;
12535;SDS011;6334;48.696;2.114;2023-05-10T08:31:50;1.73;;;1.60;;
12535;SDS011;6334;48.696;2.114;2023-05-10T08:34:20;4.80;;;2.30;;
12535;SDS011;6334;48.696;2.114;2023-05-10T08:36:51;6.30;;;2.30;;
12535;SDS011;6334;48.696;2.114;2023-05-10T08:39:21;5.37;;;2.50;;
12535;SDS011;6334;48.696;2.114;2023-05-10T08:41:51;3.63;;;2.53;;
12535;SDS011;6334;48.696;2.114;2023-05-10T08:44:22;4.33;;;2.37;;
12535;SDS011;6334;48.696;2.114;2023-05-10T08:46:53;7.10;;;2.87;;
12535;SDS011;6334;48.696;2.114;2023-05-10T08:49:23;7.03;;;3.03;;
12535;SDS011;6334;48.696;2.114;2023-05-10T08:51:54;7.93;;;3.30;;
12535;SDS011;6334;48.696;2.114;2023-05-10T08:54:24;7.33;;;3.20;;
12535;SDS011;6334;48.696;2.114;2023-05-10T08:56:54;13.30;;;4.20;;
12535;SDS011;6334;48.696;2.114;2023-05-10T08:59:25;7.33;;;3.37;;
12535;SDS011;6334;48.696;2.114;2023-05-10T09:01:56;8.73;;;3.00;;
12535;SDS011;6334;48.696;2.114;2023-05-10T09:04:26;11.20;;;3.77;;
12535;SDS011;6334;48.696;2.114;2023-05-10T09:06:56;8.17;;;3.53;;
12535;SDS011;6334;48.696;2.114;2023-05-10T09:09:26;8.83;;;3.27;;
12535;SDS011;6334;48.696;2.114;2023-05-10T09:11:57;8.43;;;3.20;;
12535;SDS011;6334;48.696;2.114;2023-05-10T09:14:27;8.43;;;3.90;;
12535;SDS011;6334;48.696;2.114;2023-05-10T09:16:58;9.10;;;3.87;;
12535;SDS011;6334;48.696;2.114;2023-05-10T09:19:28;6.53;;;3.40;;
12535;SDS011;6334;48.696;2.114;2023-05-10T09:21:59;12.17;;;3.80;;
12535;SDS011;6334;48.696;2.114;2023-05-10T09:24:30;10.50;;;3.40;;
12535;SDS011;6334;48.696;2.114;2023-05-10T09:27:00;8.73;;;3.30;;
12535;SDS011;6334;48.696;2.114;2023-05-10T09:29:38;8.43;;;3.10;;
12535;SDS011;6334;48.696;2.114;2023-05-10T09:32:09;8.63;;;3.47;;
12535;SDS011;6334;48.696;2.114;2023-05-10T09:34:40;12.37;;;3.87;;
12535;SDS011;6334;48.696;2.114;2023-05-10T09:37:10;9.67;;;3.30;;
12535;SDS011;6334;48.696;2.114;2023-05-10T09:39:42;11.00;;;4.10;;
12535;SDS011;6334;48.696;2.114;2023-05-10T09:42:13;9.30;;;3.37;;
12535;SDS011;6334;48.696;2.114;2023-05-10T09:44:43;11.30;;;3.67;;
12535;SDS011;6334;48.696;2.114;2023-05-10T09:47:17;11.93;;;3.60;;
12535;SDS011;6334;48.696;2.114;2023-05-10T09:49:50;12.20;;;4.00;;
12535;SDS011;6334;48.696;2.114;2023-05-10T09:52:20;7.93;;;3.07;;
12535;SDS011;6334;48.696;2.114;2023-05-10T09:54:53;9.27;;;3.53;;
12535;SDS011;6334;48.696;2.114;2023-05-10T09:57:24;9.13;;;3.77;;
12535;SDS011;6334;48.696;2.114;2023-05-10T09:59:54;14.33;;;3.97;;
12535;SDS011;6334;48.696;2.114;2023-05-10T10:02:29;9.50;;;3.90;;
12535;SDS011;6334;48.696;2.114;2023-05-10T10:05:00;10.33;;;3.57;;
12535;SDS011;6334;48.696;2.114;2023-05-10T10:07:30;11.40;;;3.60;;
12535;SDS011;6334;48.696;2.114;2023-05-10T10:10:01;7.07;;;3.27;;
12535;SDS011;6334;48.696;2.114;2023-05-10T10:12:31;9.63;;;3.10;;
12535;SDS011;6334;48.696;2.114;2023-05-10T10:15:02;8.07;;;3.40;;
12535;SDS011;6334;48.696;2.114;2023-05-10T10:17:32;12.70;;;3.57;;
12535;SDS011;6334;48.696;2.114;2023-05-10T10:20:03;8.33;;;3.20;;
12535;SDS011;6334;48.696;2.114;2023-05-10T10:22:33;5.33;;;3.00;;
12535;SDS011;6334;48.696;2.114;2023-05-10T10:25:08;8.50;;;3.27;;
12535;SDS011;6334;48.696;2.114;2023-05-10T10:35:57;8.23;;;2.83;;
12535;SDS011;6334;48.696;2.114;2023-05-10T10:38:35;8.43;;;3.10;;
12535;SDS011;6334;48.696;2.114;2023-05-10T10:41:03;11.07;;;4.37;;
12535;SDS011;6334;48.696;2.114;2023-05-10T10:43:33;7.73;;;3.20;;
12535;SDS011;6334;48.696;2.114;2023-05-10T10:46:10;11.33;;;3.70;;
12535;SDS011;6334;48.696;2.114;2023-05-10T10:49:16;8.60;;;3.10;;
12535;SDS011;6334;48.696;2.114;2023-05-10T10:51:19;5.80;;;3.10;;
12535;SDS011;6334;48.696;2.114;2023-05-10T10:53:49;6.10;;;3.07;;
12535;SDS011;6334;48.696;2.114;2023-05-10T10:56:21;7.13;;;3.40;;
12535;SDS011;6334;48.696;2.114;2023-05-10T10:58:51;10.90;;;2.83;;
12535;SDS011;6334;48.696;2.114;2023-05-10T11:01:20;7.73;;;3.13;;
12535;SDS011;6334;48.696;2.114;2023-05-10T11:06:30;9.27;;;3.13;;
12535;SDS011;6334;48.696;2.114;2023-05-10T11:09:07;8.80;;;3.03;;
12535;SDS011;6334;48.696;2.114;2023-05-10T11:11:49;7.10;;;2.70;;
12535;SDS011;6334;48.696;2.114;2023-05-10T11:14:21;8.33;;;3.10;;
12535;SDS011;6334;48.696;2.114;2023-05-10T11:16:49;6.57;;;2.73;;
12535;SDS011;6334;48.696;2.114;2023-05-10T11:19:19;6.37;;;3.17;;
12535;SDS011;6334;48.696;2.114;2023-05-10T11:21:51;11.20;;;3.40;;
12535;SDS011;6334;48.696;2.114;2023-05-10T11:24:22;7.87;;;3.60;;
12535;SDS011;6334;48.696;2.114;2023-05-10T11:26:51;7.43;;;3.43;;
12535;SDS011;6334;48.696;2.114;2023-05-10T11:29:21;10.20;;;2.60;;
12535;SDS011;6334;48.696;2.114;2023-05-10T11:31:52;9.97;;;3.13;;
12535;SDS011;6334;48.696;2.114;2023-05-10T11:34:25;7.47;;;2.93;;
12535;SDS011;6334;48.696;2.114;2023-05-10T11:36:53;7.30;;;2.80;;
12535;SDS011;6334;48.696;2.114;2023-05-10T11:39:26;7.13;;;2.53;;
12535;SDS011;6334;48.696;2.114;2023-05-10T11:41:59;10.70;;;3.47;;
12535;SDS011;6334;48.696;2.114;2023-05-10T11:44:30;5.10;;;2.60;;
12535;SDS011;6334;48.696;2.114;2023-05-10T11:47:00;9.07;;;3.20;;
12535;SDS011;6334;48.696;2.114;2023-05-10T11:49:30;8.27;;;3.43;;
12535;SDS011;6334;48.696;2.114;2023-05-10T11:52:07;6.00;;;2.80;;
12535;SDS011;6334;48.696;2.114;2023-05-10T11:54:52;2.80;;;2.20;;
12535;SDS011;6334;48.696;2.114;2023-05-10T11:57:25;4.17;;;1.70;;
12535;SDS011;6334;48.696;2.114;2023-05-10T11:59:56;6.47;;;3.10;;
12535;SDS011;6334;48.696;2.114;2023-05-10T12:02:28;9.07;;;3.45;;
12535;SDS011;6334;48.696;2.114;2023-05-10T12:04:58;7.33;;;3.10;;
12535;SDS011;6334;48.696;2.114;2023-05-10T12:07:29;7.30;;;2.90;;
12535;SDS011;6334;48.696;2.114;2023-05-10T12:10:05;7.93;;;3.03;;
12535;SDS011;6334;48.696;2.114;2023-05-10T12:12:42;7.63;;;2.73;;
12535;SDS011;6334;48.696;2.114;2023-05-10T12:15:12;6.83;;;2.60;;
12535;SDS011;6334;48.696;2.114;2023-05-10T12:17:43;5.77;;;2.67;;
12535;SDS011;6334;48.696;2.114;2023-05-10T12:20:13;7.03;;;2.90;;
12535;SDS011;6334;48.696;2.114;2023-05-10T12:22:49;7.43;;;3.00;;
12535;SDS011;6334;48.696;2.114;2023-05-10T12:25:20;4.63;;;2.47;;
12535;SDS011;6334;48.696;2.114;2023-05-10T12:27:53;5.87;;;2.93;;
12535;SDS011;6334;48.696;2.114;2023-05-10T12:30:23;5.77;;;2.80;;
12535;SDS011;6334;48.696;2.114;2023-05-10T12:32:53;7.07;;;2.90;;
12535;SDS011;6334;48.696;2.114;2023-05-10T12:35:23;7.00;;;3.17;;
12535;SDS011;6334;48.696;2.114;2023-05-10T12:37:54;5.27;;;2.43;;
12535;SDS011;6334;48.696;2.114;2023-05-10T12:40:24;7.70;;;3.23;;
12535;SDS011;6334;48.696;2.114;2023-05-10T12:42:55;4.13;;;2.63;;
12535;SDS011;6334;48.696;2.114;2023-05-10T12:45:25;4.90;;;2.70;;
12535;SDS011;6334;48.696;2.114;2023-05-10T12:47:55;4.83;;;2.77;;
12535;SDS011;6334;48.696;2.114;2023-05-10T12:50:26;5.83;;;3.03;;
12535;SDS011;6334;48.696;2.114;2023-05-10T12:52:56;7.47;;;3.13;;
12535;SDS011;6334;48.696;2.114;2023-05-10T12:55:27;7.10;;;3.43;;
12535;SDS011;6334;48.696;2.114;2023-05-10T12:57:57;9.30;;;3.50;;
12535;SDS011;6334;48.696;2.114;2023-05-10T13:00:28;5.43;;;3.37;;
12535;SDS011;6334;48.696;2.114;2023-05-10T13:02:58;6.57;;;3.30;;
12535;SDS011;6334;48.696;2.114;2023-05-10T13:05:29;6.63;;;2.87;;
12535;SDS011;6334;48.696;2.114;2023-05-10T13:07:59;6.37;;;3.00;;
12535;SDS011;6334;48.696;2.114;2023-05-10T13:10:30;8.83;;;3.03;;
12535;SDS011;6334;48.696;2.114;2023-05-10T13:13:00;3.30;;;2.40;;
12535;SDS011;6334;48.696;2.114;2023-05-10T13:15:31;5.90;;;2.70;;
12535;SDS011;6334;48.696;2.114;2023-05-10T13:18:01;7.70;;;2.97;;
12535;SDS011;6334;48.696;2.114;2023-05-10T13:20:32;7.20;;;2.87;;
12535;SDS011;6334;48.696;2.114;2023-05-10T13:23:02;6.00;;;2.93;;
12535;SDS011;6334;48.696;2.114;2023-05-10T13:25:33;5.57;;;2.80;;
12535;SDS011;6334;48.696;2.114;2023-05-10T13:28:03;4.30;;;2.37;;
12535;SDS011;6334;48.696;2.114;2023-05-10T13:30:34;7.87;;;2.90;;
12535;SDS011;6334;48.696;2.114;2023-05-10T13:33:04;9.70;;;3.70;;
12535;SDS011;6334;48.696;2.114;2023-05-10T13:35:34;6.87;;;3.13;;
12535;SDS011;6334;48.696;2.114;2023-05-10T13:38:05;9.17;;;3.70;;
12535;SDS011;6334;48.696;2.114;2023-05-10T13:40:35;6.17;;;3.50;;
12535;SDS011;6334;48.696;2.114;2023-05-10T13:43:06;3.77;;;3.10;;
12535;SDS011;6334;48.696;2.114;2023-05-10T13:45:38;6.00;;;3.17;;
12535;SDS011;6334;48.696;2.114;2023-05-10T13:48:08;8.27;;;3.27;;
12535;SDS011;6334;48.696;2.114;2023-05-10T13:50:38;5.57;;;3.13;;
12535;SDS011;6334;48.696;2.114;2023-05-10T13:53:09;5.80;;;2.90;;
12535;SDS011;6334;48.696;2.114;2023-05-10T13:55:39;7.30;;;2.77;;
12535;SDS011;6334;48.696;2.114;2023-05-10T13:58:10;6.03;;;2.70;;
12535;SDS011;6334;48.696;2.114;2023-05-10T14:00:40;6.03;;;3.07;;
12535;SDS011;6334;48.696;2.114;2023-05-10T14:03:11;2.37;;;2.17;;
12535;SDS011;6334;48.696;2.114;2023-05-10T14:05:41;5.23;;;2.67;;
12535;SDS011;6334;48.696;2.114;2023-05-10T14:08:12;6.87;;;2.73;;
12535;SDS011;6334;48.696;2.114;2023-05-10T14:10:42;4.80;;;2.63;;
12535;SDS011;6334;48.696;2.114;2023-05-10T14:13:13;6.03;;;2.87;;
12535;SDS011;6334;48.696;2.114;2023-05-10T14:15:43;4.40;;;2.43;;
12535;SDS011;6334;48.696;2.114;2023-05-10T14:18:14;5.87;;;2.53;;
12535;SDS011;6334;48.696;2.114;2023-05-10T14:20:44;6.47;;;2.60;;
12535;SDS011;6334;48.696;2.114;2023-05-10T14:23:15;4.73;;;2.03;;
12535;SDS011;6334;48.696;2.114;2023-05-10T14:25:45;2.17;;;1.60;;
12535;SDS011;6334;48.696;2.114;2023-05-10T14:28:15;5.67;;;2.70;;
12535;SDS011;6334;48.696;2.114;2023-05-10T14:30:47;9.07;;;2.90;;
12535;SDS011;6334;48.696;2.114;2023-05-10T14:33:17;5.07;;;2.50;;
12535;SDS011;6334;48.696;2.114;2023-05-10T14:35:48;5.93;;;2.53;;
12535;SDS011;6334;48.696;2.114;2023-05-10T14:38:18;4.57;;;2.40;;
12535;SDS011;6334;48.696;2.114;2023-05-10T14:40:49;5.20;;;2.77;;
12535;SDS011;6334;48.696;2.114;2023-05-10T14:43:19;5.17;;;2.27;;
12535;SDS011;6334;48.696;2.114;2023-05-10T14:45:50;5.47;;;2.70;;
12535;SDS011;6334;48.696;2.114;2023-05-10T14:48:20;5.47;;;3.00;;
12535;SDS011;6334;48.696;2.114;2023-05-10T14:50:50;6.50;;;2.67;;
12535;SDS011;6334;48.696;2.114;2023-05-10T14:53:21;5.37;;;2.60;;
12535;SDS011;6334;48.696;2.114;2023-05-10T14:55:52;10.27;;;3.50;;
12535;SDS011;6334;48.696;2.114;2023-05-10T14:58:23;6.03;;;3.03;;
12535;SDS011;6334;48.696;2.114;2023-05-10T15:00:53;6.47;;;3.13;;
12535;SDS011;6334;48.696;2.114;2023-05-10T15:03:24;10.13;;;3.17;;
12535;SDS011;6334;48.696;2.114;2023-05-10T15:05:54;7.03;;;3.60;;
12535;SDS011;6334;48.696;2.114;2023-05-10T15:08:25;5.27;;;2.67;;
12535;SDS011;6334;48.696;2.114;2023-05-10T15:10:55;5.43;;;3.20;;
12535;SDS011;6334;48.696;2.114;2023-05-10T15:13:26;6.10;;;3.40;;
12535;SDS011;6334;48.696;2.114;2023-05-10T15:15:56;5.50;;;2.87;;
12535;SDS011;6334;48.696;2.114;2023-05-10T15:18:27;2.47;;;2.27;;
12535;SDS011;6334;48.696;2.114;2023-05-10T15:20:57;3.10;;;2.53;;
12535;SDS011;6334;48.696;2.114;2023-05-10T15:23:27;3.60;;;2.53;;
12535;SDS011;6334;48.696;2.114;2023-05-10T15:25:58;5.33;;;2.90;;
12535;SDS011;6334;48.696;2.114;2023-05-10T15:28:28;5.47;;;3.10;;
12535;SDS011;6334;48.696;2.114;2023-05-10T15:30:59;7.43;;;3.07;;
12535;SDS011;6334;48.696;2.114;2023-05-10T15:33:29;4.53;;;3.00;;
12535;SDS011;6334;48.696;2.114;2023-05-10T15:36:00;6.53;;;3.10;;
12535;SDS011;6334;48.696;2.114;2023-05-10T15:38:30;3.97;;;2.97;;
12535;SDS011;6334;48.696;2.114;2023-05-10T15:41:01;7.93;;;3.00;;
12535;SDS011;6334;48.696;2.114;2023-05-10T15:43:31;5.83;;;2.63;;
12535;SDS011;6334;48.696;2.114;2023-05-10T15:46:02;7.20;;;2.87;;
12535;SDS011;6334;48.696;2.114;2023-05-10T15:48:32;6.17;;;2.70;;
12535;SDS011;6334;48.696;2.114;2023-05-10T15:51:02;3.67;;;2.20;;
12535;SDS011;6334;48.696;2.114;2023-05-10T15:53:33;8.03;;;2.60;;